Terminal Aerodrome Forecast
Issued by NWS

Home | Current Version | Previous Version | Text Only | Print | Product List | Glossary On
Versions: 1 2 3 4 5 6 7 8 9 10 11 12 13
000
FTAK31 PAJN 012300
TAFAPG
TAF
PAPG 012320Z 0200/0224 06006KT P6SM FEW035
     FM020500 VRB03KT P6SM BCFG SCT003
     FM020700 00000KT 1/2SM FG VV002
     FM021700 VRB03KT P6SM BCFG SCT003
     FM021900 05005KT P6SM FEW220
      AMD LTD TO CLD VIS AND WIND 0206/0215=

USA.gov is the U.S. government's official web portal to all federal, state and local government web resources and services.